createdAt,value
2019-04-14T00:00:42.549Z,41.23
2019-04-14T00:03:34.752Z,36.90
2019-04-14T00:06:16.482Z,35.30
2019-04-14T00:08:54.353Z,33.57
2019-04-14T00:11:32.971Z,38.07
2019-04-14T00:14:12.422Z,32.23
2019-04-14T00:16:51.645Z,33.43
2019-04-14T00:19:31.305Z,40.83
2019-04-14T00:22:05.301Z,35.43
2019-04-14T00:24:45.344Z,35.47
2019-04-14T00:27:30.754Z,44.07
2019-04-14T00:30:12.477Z,35.97
2019-04-14T00:32:59.386Z,44.17
2019-04-14T00:35:49.726Z,35.43
2019-04-14T00:38:37.151Z,43.10
2019-04-14T00:41:37.088Z,41.73
2019-04-14T00:44:17.057Z,42.97
2019-04-14T00:46:55.970Z,38.70
2019-04-14T00:49:27.131Z,39.27
2019-04-14T00:51:59.220Z,45.13
2019-04-14T00:54:32.531Z,41.27
2019-04-14T00:57:03.738Z,43.80
2019-04-14T00:59:36.196Z,44.07
2019-04-14T01:02:07.754Z,43.70
2019-04-14T01:04:38.651Z,40.40
2019-04-14T01:07:10.836Z,42.33
2019-04-14T01:09:41.746Z,41.30
2019-04-14T01:12:13.114Z,48.07
2019-04-14T01:14:45.280Z,46.27
2019-04-14T01:17:17.631Z,41.27
2019-04-14T01:19:48.483Z,46.30
2019-04-14T01:22:20.550Z,41.70
2019-04-14T01:24:53.285Z,44.40
2019-04-14T01:27:25.553Z,49.43
2019-04-14T01:29:58.162Z,44.47
2019-04-14T01:32:33.153Z,48.90
2019-04-14T01:35:09.524Z,54.43
2019-04-14T01:37:41.801Z,46.53
2019-04-14T01:40:16.408Z,49.17
2019-04-14T01:42:48.515Z,52.13
2019-04-14T01:45:20.783Z,46.23
2019-04-14T01:47:53.226Z,46.33
2019-04-14T01:50:34.407Z,46.73
2019-04-14T01:53:16.064Z,51.93
2019-04-14T01:56:08.731Z,50.07
2019-04-14T01:58:46.932Z,48.43
2019-04-14T02:01:36.749Z,42.07
2019-04-14T02:04:09.438Z,49.43
2019-04-14T02:06:40.452Z,51.67
2019-04-14T02:09:12.181Z,56.47
2019-04-14T02:11:44.417Z,51.60
2019-04-14T02:14:15.349Z,50.87
2019-04-14T02:16:50.838Z,51.43
2019-04-14T02:19:19.890Z,50.73
2019-04-14T02:21:51.902Z,47.10
2019-04-14T02:24:24.130Z,52.23
2019-04-14T02:26:57.006Z,52.07
2019-04-14T02:29:27.634Z,57.67
2019-04-14T02:32:27.273Z,61.60
2019-04-14T02:35:08.151Z,47.67
2019-04-14T02:40:05.311Z,50.17
2019-04-14T02:42:39.546Z,55.23
2019-04-14T02:45:10.539Z,52.30
2019-04-14T02:48:00.036Z,52.50
2019-04-14T02:50:17.954Z,64.80
2019-04-14T02:53:01.607Z,49.23
2019-04-14T02:55:35.391Z,53.47
2019-04-14T03:00:25.775Z,57.27
2019-04-14T03:02:47.308Z,58.87
2019-04-14T03:05:26.861Z,62.83
2019-04-14T03:08:04.310Z,59.40
2019-04-14T03:10:32.109Z,63.57
2019-04-14T03:13:08.243Z,59.60
2019-04-14T03:18:48.412Z,61.10
2019-04-14T03:21:30.653Z,50.23
2019-04-14T03:24:21.718Z,59.43
2019-04-14T03:27:04.951Z,53.27
2019-04-14T03:32:23.627Z,60.30
2019-04-14T03:34:55.324Z,69.70
2019-04-14T03:37:39.488Z,63.87
2019-04-14T03:39:51.220Z,69.47
2019-04-14T03:42:29.686Z,71.03
2019-04-14T03:44:56.536Z,61.67
2019-04-14T03:47:25.718Z,64.73
2019-04-14T03:50:08.398Z,69.00
2019-04-14T03:52:43.688Z,56.50
2019-04-14T03:54:57.004Z,72.90
2019-04-14T03:57:14.936Z,58.80
2019-04-14T03:59:45.963Z,66.83
2019-04-14T04:02:16.698Z,65.53
2019-04-14T04:04:47.339Z,61.80
2019-04-14T04:07:19.155Z,59.17
2019-04-14T04:09:58.255Z,77.73
2019-04-14T04:12:29.303Z,67.63
2019-04-14T04:15:00.120Z,59.03
2019-04-14T04:17:47.201Z,55.70
2019-04-14T04:20:34.982Z,62.50
2019-04-14T04:23:23.329Z,64.70
2019-04-14T04:26:10.138Z,62.53
2019-04-14T04:29:02.757Z,61.27
2019-04-14T04:31:52.537Z,58.97
2019-04-14T04:34:53.427Z,66.17
2019-04-14T04:37:49.812Z,66.43
2019-04-14T04:40:24.596Z,70.97
2019-04-14T04:42:55.152Z,68.47
2019-04-14T04:45:25.704Z,67.77
2019-04-14T04:47:56.310Z,63.57
2019-04-14T04:50:26.577Z,70.53
2019-04-14T04:52:58.206Z,66.93
2019-04-14T04:55:28.780Z,69.33
2019-04-14T04:57:59.775Z,68.50
2019-04-14T05:00:30.939Z,77.37
2019-04-14T05:03:01.639Z,73.73
2019-04-14T05:06:08.988Z,66.83
2019-04-14T05:08:48.052Z,66.17
2019-04-14T05:11:25.107Z,61.37
2019-04-14T05:13:57.589Z,61.83
2019-04-14T05:16:28.284Z,63.50
2019-04-14T05:19:12.258Z,69.10
2019-04-14T05:21:32.139Z,61.67
2019-04-14T05:24:03.215Z,45.07
2019-04-14T05:26:35.122Z,53.17
2019-04-14T05:29:06.142Z,53.00
2019-04-14T05:31:38.266Z,58.20
2019-04-14T05:34:09.262Z,48.93
2019-04-14T05:36:41.054Z,49.73
2019-04-14T05:39:13.575Z,59.90
2019-04-14T05:41:57.154Z,52.87
2019-04-14T05:44:17.075Z,50.07
2019-04-14T05:46:47.617Z,51.80
2019-04-14T05:49:27.568Z,39.30
2019-04-14T05:51:51.290Z,44.20
2019-04-14T05:54:23.350Z,32.90
2019-04-14T05:56:53.920Z,48.90
2019-04-14T05:59:26.569Z,48.37
2019-04-14T06:01:57.171Z,39.23
2019-04-14T06:04:28.600Z,41.93
2019-04-14T06:06:59.683Z,29.43
2019-04-14T06:09:30.553Z,25.10
2019-04-14T06:12:01.588Z,36.50
2019-04-14T06:14:38.335Z,34.63
2019-04-14T06:17:09.175Z,36.30
2019-04-14T06:19:40.743Z,41.77
2019-04-14T06:22:11.626Z,31.23
2019-04-14T06:24:42.164Z,31.93
2019-04-14T06:27:13.540Z,42.50
2019-04-14T06:29:44.035Z,34.60
2019-04-14T06:32:24.654Z,35.20
2019-04-14T06:35:13.513Z,30.60
2019-04-14T06:37:51.119Z,28.93
2019-04-14T06:40:37.285Z,38.67
2019-04-14T06:43:18.908Z,32.27
2019-04-14T06:45:49.924Z,31.00
2019-04-14T06:48:20.778Z,28.37
2019-04-14T06:50:52.020Z,33.20
2019-04-14T06:53:23.395Z,30.03
2019-04-14T06:55:55.093Z,31.40
2019-04-14T06:58:25.994Z,31.60
2019-04-14T07:00:56.784Z,29.33
2019-04-14T07:03:27.748Z,30.93
2019-04-14T07:06:00.207Z,37.20
2019-04-14T07:08:31.509Z,34.03
2019-04-14T07:11:02.606Z,36.00
2019-04-14T07:13:33.634Z,35.70
2019-04-14T07:16:04.495Z,28.47
2019-04-14T07:18:35.095Z,33.27
2019-04-14T07:21:07.819Z,33.93
2019-04-14T07:23:38.644Z,36.03
2019-04-14T07:26:09.634Z,33.83
2019-04-14T07:28:40.605Z,37.93
2019-04-14T07:31:30.662Z,34.13
2019-04-14T07:34:23.672Z,32.43
2019-04-14T07:37:22.080Z,32.73
2019-04-14T07:39:59.176Z,35.00
2019-04-14T07:42:48.994Z,31.17
2019-04-14T07:45:29.113Z,34.17
2019-04-14T07:48:08.435Z,35.87
2019-04-14T07:51:00.833Z,33.40
2019-04-14T07:53:54.035Z,37.97
2019-04-14T07:56:46.519Z,39.70
2019-04-14T07:59:28.747Z,32.33
2019-04-14T08:02:21.740Z,44.87
2019-04-14T08:05:02.779Z,31.87
2019-04-14T08:07:34.019Z,32.20
2019-04-14T08:10:05.850Z,39.83
2019-04-14T08:12:38.015Z,37.03
2019-04-14T08:15:10.304Z,34.07
2019-04-14T08:17:57.764Z,26.37
2019-04-14T08:21:02.986Z,30.37
2019-04-14T08:23:41.440Z,33.37
2019-04-14T08:26:12.865Z,36.13
2019-04-14T08:28:44.031Z,32.80
2019-04-14T08:31:14.804Z,29.17
2019-04-14T08:33:46.256Z,35.33
2019-04-14T08:36:17.400Z,36.10
2019-04-14T08:38:50.590Z,35.13
2019-04-14T08:41:21.916Z,33.00
2019-04-14T08:47:57.140Z,32.27
2019-04-14T08:50:45.831Z,31.03
2019-04-14T08:53:39.972Z,29.17
2019-04-14T08:56:41.888Z,26.57
2019-04-14T08:59:35.394Z,38.03
2019-04-14T09:06:39.949Z,26.27
2019-04-14T09:10:11.759Z,28.87
2019-04-14T09:13:25.074Z,27.87
2019-04-14T09:20:08.443Z,32.63
2019-04-14T09:23:27.455Z,33.73
2019-04-14T09:33:28.129Z,28.57
2019-04-14T09:44:09.976Z,26.07
2019-04-14T09:47:19.362Z,29.67
2019-04-14T09:50:41.857Z,30.87
2019-04-14T09:54:00.757Z,32.07
2019-04-14T09:57:04.020Z,29.10
2019-04-14T10:00:23.757Z,30.87
2019-04-14T10:06:40.776Z,30.73
2019-04-14T10:16:37.447Z,26.13
2019-04-14T10:23:17.626Z,32.30
2019-04-14T10:26:42.385Z,27.80
2019-04-14T10:30:09.594Z,26.80
2019-04-14T10:33:36.981Z,32.37
2019-04-14T10:40:06.242Z,26.30
2019-04-14T10:43:35.677Z,31.90
2019-04-14T10:50:16.611Z,28.93
2019-04-14T10:53:07.539Z,29.87
2019-04-14T11:03:15.395Z,35.10
2019-04-14T11:09:49.416Z,31.33
2019-04-14T11:13:00.140Z,26.43
2019-04-14T11:16:27.310Z,24.73
2019-04-14T11:19:35.193Z,28.00
2019-04-14T11:26:56.697Z,31.60
2019-04-14T11:30:03.657Z,26.13
2019-04-14T11:33:41.976Z,28.73
2019-04-14T11:37:04.320Z,23.70
2019-04-14T11:40:29.446Z,28.93
2019-04-14T11:46:45.375Z,27.07
2019-04-14T11:49:54.068Z,28.63
2019-04-14T11:53:09.915Z,19.43
2019-04-14T11:56:01.960Z,25.50
2019-04-14T11:58:58.957Z,26.07
2019-04-14T12:05:41.240Z,20.47
2019-04-14T12:09:09.186Z,18.33
2019-04-14T12:12:17.311Z,25.83
2019-04-14T12:15:36.577Z,31.87
2019-04-14T12:18:49.336Z,19.07
2019-04-14T12:22:17.256Z,22.77
2019-04-14T12:25:37.815Z,22.53
2019-04-14T12:32:15.462Z,23.80
2019-04-14T12:35:42.266Z,16.07
2019-04-14T12:38:42.325Z,22.23
2019-04-14T12:42:07.841Z,25.63
2019-04-14T12:45:39.582Z,15.87
2019-04-14T12:52:59.544Z,24.50
2019-04-14T12:56:00.487Z,16.23
2019-04-14T12:59:37.371Z,18.23
2019-04-14T13:03:14.740Z,20.73
2019-04-14T13:06:34.666Z,17.87
2019-04-14T13:12:59.692Z,20.23
2019-04-14T13:16:24.244Z,21.33
2019-04-14T13:19:20.446Z,16.27
2019-04-14T13:22:59.036Z,20.33
2019-04-14T13:26:26.772Z,20.77
2019-04-14T13:29:16.345Z,20.93
2019-04-14T13:32:36.101Z,21.27
2019-04-14T13:35:46.355Z,20.23
2019-04-14T13:42:35.776Z,18.10
2019-04-14T13:45:42.560Z,19.53
2019-04-14T13:48:56.409Z,21.37
2019-04-14T13:55:57.892Z,21.60
2019-04-14T13:59:14.132Z,17.97
2019-04-14T14:02:39.156Z,21.10
2019-04-14T14:06:11.273Z,21.63
2019-04-14T14:09:27.236Z,24.50
2019-04-14T14:19:47.980Z,19.87
2019-04-14T14:23:23.764Z,22.97
2019-04-14T14:26:16.662Z,27.03
2019-04-14T14:29:40.895Z,21.23
2019-04-14T14:36:52.433Z,23.73
2019-04-14T14:40:20.628Z,21.53
2019-04-14T14:43:24.656Z,26.90
2019-04-14T14:46:30.033Z,22.77
2019-04-14T14:53:11.853Z,25.40
2019-04-14T14:56:27.065Z,24.63
2019-04-14T14:59:20.671Z,23.83
2019-04-14T15:02:45.964Z,23.80
2019-04-14T15:05:38.846Z,23.53
2019-04-14T15:08:47.429Z,24.63
2019-04-14T15:12:20.553Z,20.40
2019-04-14T15:19:37.967Z,24.23
2019-04-14T15:29:33.832Z,23.37
2019-04-14T15:36:32.359Z,20.23
2019-04-14T15:40:19.802Z,30.57
2019-04-14T15:44:00.472Z,22.60
2019-04-14T15:50:34.812Z,19.43
2019-04-14T15:53:53.602Z,15.83
2019-04-14T15:57:06.327Z,17.73
2019-04-14T16:04:22.004Z,11.50
2019-04-14T16:07:53.103Z,11.60
2019-04-14T16:11:26.391Z,12.50
2019-04-14T16:14:52.132Z,10.70
2019-04-14T16:29:44.755Z,12.77
2019-04-14T16:33:40.867Z,13.33
2019-04-14T16:36:30.581Z,13.37
2019-04-14T16:39:37.270Z,11.07
2019-04-14T16:46:06.071Z,11.63
2019-04-14T16:49:26.292Z,13.20
2019-04-14T16:52:24.797Z,13.27
2019-04-14T16:55:30.938Z,16.70
2019-04-14T17:11:40.787Z,13.83
2019-04-14T17:14:57.593Z,14.13
2019-04-14T17:18:06.805Z,15.37
2019-04-14T17:21:27.327Z,16.40
2019-04-14T17:24:40.120Z,18.20
2019-04-14T17:28:37.058Z,16.83
2019-04-14T17:39:12.246Z,16.93
2019-04-14T17:42:28.073Z,17.77
2019-04-14T17:45:59.088Z,16.70
2019-04-14T17:50:11.708Z,17.73
2019-04-14T17:52:44.512Z,21.63
2019-04-14T17:55:49.735Z,21.73
2019-04-14T18:02:53.130Z,26.17
2019-04-14T18:09:34.648Z,22.17
2019-04-14T18:12:34.609Z,25.70
2019-04-14T18:15:56.504Z,26.97
2019-04-14T18:19:23.549Z,25.67
2019-04-14T18:22:36.908Z,26.90
2019-04-14T18:25:38.575Z,30.07
2019-04-14T18:28:46.963Z,25.77
2019-04-14T18:32:08.265Z,28.07
2019-04-14T18:35:42.529Z,27.57
2019-04-14T18:39:08.766Z,29.63
2019-04-14T18:42:45.187Z,28.63
2019-04-14T18:49:42.912Z,30.33
2019-04-14T18:52:56.457Z,30.70
2019-04-14T18:56:14.119Z,34.33
2019-04-14T18:59:19.192Z,32.10
2019-04-14T19:02:35.999Z,35.57
2019-04-14T19:05:57.732Z,32.23
2019-04-14T19:08:49.961Z,37.13
2019-04-14T19:11:56.640Z,36.53
2019-04-14T19:15:05.604Z,34.43
2019-04-14T19:18:13.848Z,30.90
2019-04-14T19:24:43.129Z,32.17
2019-04-14T19:27:41.119Z,46.07
2019-04-14T19:30:50.366Z,40.53
2019-04-14T19:33:32.750Z,32.00
2019-04-14T19:36:23.647Z,42.57
2019-04-14T19:39:39.833Z,35.60
2019-04-14T19:42:41.688Z,39.37
2019-04-14T19:45:45.303Z,44.03
2019-04-14T19:48:58.335Z,37.97
2019-04-14T19:52:23.931Z,39.97
2019-04-14T19:55:21.729Z,40.27
2019-04-14T19:58:08.479Z,37.33
2019-04-14T20:01:14.609Z,42.17
2019-04-14T20:03:57.188Z,34.90
2019-04-14T20:06:34.898Z,40.73
2019-04-14T20:09:13.746Z,39.97
2019-04-14T20:15:15.047Z,36.87
2019-04-14T20:21:46.093Z,36.17
2019-04-14T20:24:44.362Z,42.03
2019-04-14T20:28:12.108Z,56.03
2019-04-14T20:31:02.498Z,50.33
2019-04-14T20:33:50.641Z,39.87
2019-04-14T20:36:33.804Z,40.60
2019-04-14T20:42:35.869Z,40.23
2019-04-14T20:49:15.644Z,45.00
2019-04-14T20:52:28.659Z,45.90
2019-04-14T20:55:13.087Z,39.87
2019-04-14T20:58:14.457Z,44.93
2019-04-14T21:01:17.268Z,45.70
2019-04-14T21:04:07.635Z,49.43
2019-04-14T21:07:48.124Z,39.97
2019-04-14T21:11:12.029Z,37.27
2019-04-14T21:14:37.252Z,42.80
2019-04-14T21:18:20.746Z,39.67
2019-04-14T21:21:24.744Z,48.20
2019-04-14T21:24:41.468Z,41.60
2019-04-14T21:28:13.538Z,43.67
2019-04-14T21:31:09.303Z,40.93
2019-04-14T21:34:41.242Z,43.03
2019-04-14T21:38:26.079Z,43.77
2019-04-14T21:41:43.517Z,42.57
2019-04-14T21:44:40.711Z,47.17
2019-04-14T21:48:07.760Z,41.57
2019-04-14T21:54:43.513Z,41.23
2019-04-14T21:58:17.104Z,43.57
2019-04-14T22:01:57.818Z,45.70
2019-04-14T22:08:26.493Z,45.17
2019-04-14T22:11:14.107Z,48.73
2019-04-14T22:14:36.147Z,51.80
2019-04-14T22:17:35.084Z,47.07
2019-04-14T22:20:59.290Z,51.43
2019-04-14T22:24:24.518Z,48.03
2019-04-14T22:27:31.558Z,47.20
2019-04-14T22:30:36.443Z,48.40
2019-04-14T22:33:32.079Z,45.53
2019-04-14T22:36:20.922Z,46.33
2019-04-14T22:39:19.814Z,47.23
2019-04-14T22:42:13.553Z,50.10
2019-04-14T22:45:15.292Z,49.67
2019-04-14T22:48:32.743Z,49.40
2019-04-14T22:51:32.163Z,43.43
2019-04-14T22:57:24.083Z,49.00
2019-04-14T23:00:21.896Z,46.70
2019-04-14T23:03:38.361Z,51.83
2019-04-14T23:10:17.277Z,49.43
2019-04-14T23:13:12.452Z,48.60
2019-04-14T23:23:22.371Z,49.07
2019-04-14T23:26:22.789Z,48.03
2019-04-14T23:29:23.099Z,55.63
2019-04-14T23:32:19.812Z,50.53
2019-04-14T23:35:11.390Z,53.20
2019-04-14T23:38:13.101Z,53.13
2019-04-14T23:41:19.908Z,53.43
2019-04-14T23:43:58.405Z,51.03
2019-04-14T23:47:07.031Z,48.47
2019-04-14T23:50:03.272Z,50.67
2019-04-14T23:52:48.499Z,55.23
